Time;durP1;ratioP1;P1;durP2;ratioP2;P2;SDS_P1;SDS_P2;PMS_P1;PMS_P2;Temp;Humidity;BMP_temperature;BMP_pressure;BME280_temperature;BME280_humidity;BME280_pressure;Samples;Min_cycle;Max_cycle;Signal;HPM_P1;HPM_P2
2024/02/01 00:01:35;;;;;;;6.97;3.63;;;;;;;12.73;100.00;101876.91;10561781;28;20050;-72
2024/02/01 00:07:01;;;;;;;9.52;3.47;;;;;;;12.87;100.00;101871.03;10572040;28;20043;-72
2024/02/01 00:12:25;;;;;;;11.45;3.72;;;;;;;12.92;100.00;101872.06;10557809;27;20054;-71
2024/02/01 00:17:48;;;;;;;10.52;3.75;;;;;;;12.98;100.00;101867.81;10563293;27;20112;-72
2024/02/01 00:23:11;;;;;;;9.70;3.67;;;;;;;12.95;100.00;101862.44;10581060;27;20051;-71
2024/02/01 00:28:35;;;;;;;8.93;3.72;;;;;;;13.00;100.00;101870.47;10568067;27;20049;-72
2024/02/01 00:33:57;;;;;;;11.02;3.67;;;;;;;12.98;100.00;101866.91;10570587;27;20133;-72
2024/02/01 00:39:20;;;;;;;8.57;3.42;;;;;;;12.92;100.00;101851.78;10582870;27;20373;-72
2024/02/01 00:44:44;;;;;;;9.27;3.10;;;;;;;13.00;100.00;101851.91;10583687;27;20089;-72
2024/02/01 00:50:07;;;;;;;9.10;3.10;;;;;;;13.07;100.00;101860.06;10561092;27;20051;-71
2024/02/01 00:55:29;;;;;;;6.00;3.10;;;;;;;13.21;100.00;101856.84;10577364;27;20483;-72
2024/02/01 01:00:53;;;;;;;10.30;3.63;;;;;;;13.14;100.00;101859.38;10578684;27;20050;-72
2024/02/01 01:06:16;;;;;;;14.10;3.50;;;;;;;13.15;100.00;101868.22;10578348;27;20051;-72
2024/02/01 01:11:38;;;;;;;9.93;3.53;;;;;;;13.24;100.00;101867.53;10577562;27;20440;-72
2024/02/01 01:17:03;;;;;;;8.27;3.50;;;;;;;13.23;100.00;101857.78;10544972;28;20640;-71
2024/02/01 01:22:25;;;;;;;9.90;3.10;;;;;;;13.16;100.00;101857.66;10542295;28;20039;-72
2024/02/01 01:27:47;;;;;;;7.75;2.97;;;;;;;13.24;100.00;101857.84;10556642;28;20050;-73
2024/02/01 01:33:11;;;;;;;10.25;3.25;;;;;;;13.23;100.00;101856.03;10557934;28;20054;-72
2024/02/01 01:38:34;;;;;;;9.52;3.10;;;;;;;13.21;100.00;101855.09;10544514;28;20048;-71
2024/02/01 01:43:56;;;;;;;11.50;3.85;;;;;;;13.24;100.00;101854.28;10544020;28;20139;-72
2024/02/01 01:49:21;;;;;;;6.80;3.03;;;;;;;13.23;100.00;101853.38;10557346;28;20043;-72
2024/02/01 01:54:44;;;;;;;6.22;3.15;;;;;;;13.30;100.00;101844.72;10543090;28;20054;-72
2024/02/01 02:00:08;;;;;;;9.52;3.25;;;;;;;13.09;100.00;101846.84;10543954;28;20051;-72
2024/02/01 02:05:32;;;;;;;8.38;3.00;;;;;;;12.99;100.00;101842.22;10571702;28;20547;-72
2024/02/01 02:10:55;;;;;;;7.63;3.38;;;;;;;12.89;100.00;101846.38;10558203;28;20063;-72
2024/02/01 02:16:18;;;;;;;9.88;3.10;;;;;;;12.81;100.00;101842.66;10532355;28;20706;-71
2024/02/01 02:21:46;;;;;;;7.78;3.40;;;;;;;12.95;100.00;101830.63;10565662;28;20062;-72
2024/02/01 02:27:09;;;;;;;7.53;3.38;;;;;;;13.02;100.00;101829.91;10541425;28;20044;-71
2024/02/01 02:32:32;;;;;;;9.25;3.70;;;;;;;13.10;100.00;101828.31;10557069;28;20048;-71
2024/02/01 02:37:56;;;;;;;6.50;3.35;;;;;;;13.18;100.00;101830.28;10554541;28;20043;-72
2024/02/01 02:43:18;;;;;;;7.13;3.92;;;;;;;13.14;100.00;101831.97;10550396;28;20036;-71
2024/02/01 02:48:41;;;;;;;10.43;3.60;;;;;;;13.11;100.00;101831.88;10564684;28;20083;-71
2024/02/01 02:54:05;;;;;;;9.20;3.63;;;;;;;12.96;100.00;101828.88;10565045;28;20040;-72
2024/02/01 02:59:27;;;;;;;9.50;4.03;;;;;;;12.90;100.00;101824.31;10565377;28;20104;-72
2024/02/01 03:04:50;;;;;;;7.50;3.72;;;;;;;12.82;100.00;101817.94;10564765;28;20043;-72
2024/02/01 03:10:15;;;;;;;9.50;3.78;;;;;;;12.91;100.00;101822.56;10552281;28;20415;-71
2024/02/01 03:15:38;;;;;;;8.35;3.47;;;;;;;12.95;100.00;101821.75;10566261;28;20040;-72
2024/02/01 03:21:01;;;;;;;7.75;3.13;;;;;;;12.94;100.00;101812.03;10563761;28;20104;-72
2024/02/01 03:26:25;;;;;;;7.70;3.92;;;;;;;12.97;100.00;101810.34;10576884;28;20043;-71
2024/02/01 03:31:47;;;;;;;6.45;3.35;;;;;;;13.06;100.00;101812.31;10577137;28;20044;-72
2024/02/01 03:37:14;;;;;;;9.88;4.22;;;;;;;13.05;100.00;101821.13;10577464;28;20055;-71
2024/02/01 03:42:38;;;;;;;7.68;3.72;;;;;;;13.14;100.00;101816.06;10549186;28;20039;-71
2024/02/01 03:48:01;;;;;;;15.52;5.40;;;;;;;13.24;100.00;101820.72;10562030;28;20050;-72
2024/02/01 03:53:24;;;;;;;7.50;4.60;;;;;;;13.08;100.00;101831.78;10577280;28;20054;-71
2024/02/01 03:58:48;;;;;;;7.63;3.60;;;;;;;13.02;100.00;101829.00;10560697;28;20084;-71
2024/02/01 04:04:17;;;;;;;11.23;5.53;;;;;;;13.09;100.00;101836.22;10576855;28;20422;-72
2024/02/01 04:09:40;;;;;;;9.77;4.30;;;;;;;13.23;100.00;101837.47;10575098;28;20048;-72
2024/02/01 04:15:05;;;;;;;7.25;4.03;;;;;;;13.33;100.00;101836.81;10582380;27;20051;-71
2024/02/01 04:20:29;;;;;;;12.98;5.80;;;;;;;13.44;100.00;101840.59;10585045;27;20566;-72
2024/02/01 04:25:52;;;;;;;6.43;3.75;;;;;;;13.51;100.00;101839.88;10578064;27;20142;-72
2024/02/01 04:31:16;;;;;;;7.00;3.45;;;;;;;13.40;100.00;101827.22;10580577;27;20046;-71
2024/02/01 04:36:38;;;;;;;9.70;4.40;;;;;;;13.33;100.00;101838.56;10582466;27;20138;-71
2024/02/01 04:42:14;;;;;;;10.25;5.25;;;;;;;13.35;100.00;101842.16;10566326;27;20483;-72
2024/02/01 04:47:38;;;;;;;10.60;5.25;;;;;;;13.38;100.00;101839.56;10560496;28;20059;-71
2024/02/01 04:53:01;;;;;;;12.73;5.03;;;;;;;13.33;100.00;101855.38;10584428;27;20048;-71
2024/02/01 04:58:23;;;;;;;12.40;6.35;;;;;;;13.38;100.00;101859.03;10586209;27;20522;-71
2024/02/01 05:03:49;;;;;;;7.82;4.70;;;;;;;13.36;100.00;101859.84;10580616;27;20061;-72
2024/02/01 05:09:25;;;;;;;8.95;4.70;;;;;;;13.45;100.00;101871.56;10546019;27;20536;-71
2024/02/01 05:14:48;;;;;;;11.20;4.78;;;;;;;13.46;100.00;101870.69;10599098;27;20117;-71
2024/02/01 05:20:12;;;;;;;13.77;5.05;;;;;;;13.51;100.00;101886.72;10590232;27;20126;-71
2024/02/01 05:25:40;;;;;;;15.95;4.95;;;;;;;13.54;100.00;101877.06;10605841;27;20050;-71
2024/02/01 05:31:02;;;;;;;10.98;4.60;;;;;;;13.50;100.00;101879.63;10613095;27;20045;-71
2024/02/01 05:36:26;;;;;;;11.95;5.40;;;;;;;13.46;100.00;101886.59;10608275;27;20042;-71
2024/02/01 05:41:49;;;;;;;10.95;5.00;;;;;;;13.55;100.00;101876.19;10597778;27;20076;-71
2024/02/01 05:47:11;;;;;;;72.03;31.70;;;;;;;13.53;100.00;101892.94;10602405;27;20047;-71
2024/02/01 05:52:37;;;;;;;9.85;5.13;;;;;;;13.62;100.00;101885.19;10605147;27;20078;-71
2024/02/01 05:58:04;;;;;;;16.50;8.85;;;;;;;13.63;100.00;101889.63;10575043;27;20043;-71
2024/02/01 06:03:27;;;;;;;14.75;11.27;;;;;;;13.85;100.00;101889.19;10608003;27;20047;-71
2024/02/01 06:08:52;;;;;;;12.05;7.68;;;;;;;13.90;100.00;101881.34;10608758;27;20047;-72
2024/02/01 06:14:15;;;;;;;10.68;7.95;;;;;;;14.01;100.00;101894.81;10618548;27;20051;-71
2024/02/01 06:19:38;;;;;;;10.50;7.00;;;;;;;14.15;100.00;101880.97;10604668;27;20050;-72
2024/02/01 06:25:03;;;;;;;14.18;8.98;;;;;;;14.26;100.00;101887.34;10619520;27;20046;-71
2024/02/01 06:30:25;;;;;;;18.05;8.35;;;;;;;14.29;100.00;101892.75;10612294;27;20039;-72
2024/02/01 06:35:48;;;;;;;15.98;13.00;;;;;;;14.47;100.00;101899.28;10639295;27;20043;-72
2024/02/01 06:41:27;;;;;;;14.43;10.70;;;;;;;14.74;100.00;101908.63;10626950;27;20499;-72
2024/02/01 06:47:06;;;;;;;9.63;7.90;;;;;;;15.03;100.00;101914.41;10608655;27;20051;-72
2024/02/01 06:52:40;;;;;;;13.65;5.90;;;;;;;15.06;100.00;101909.16;10600800;28;20054;-73
2024/02/01 06:58:13;;;;;;;12.77;6.43;;;;;;;15.28;100.00;101915.69;10623828;27;20065;-72
2024/02/01 07:09:36;;;;;;;12.70;7.95;;;;;;;15.44;100.00;101931.00;10612653;27;20616;-72
2024/02/01 07:15:19;;;;;;;13.85;8.82;;;;;;;15.61;100.00;101933.97;10632451;27;20046;-72
2024/02/01 07:20:50;;;;;;;9.90;6.47;;;;;;;15.67;100.00;101943.78;10643468;27;20412;-72
2024/02/01 07:26:24;;;;;;;14.30;9.40;;;;;;;15.65;100.00;101935.78;10606667;27;20485;-72
2024/02/01 08:00:17;;;;;;;12.05;8.88;;;;;;;16.23;100.00;101952.47;10603921;27;20053;-73
2024/02/01 08:11:22;;;;;;;9.57;6.38;;;;;;;16.32;100.00;101963.25;10634799;27;20486;-73
2024/02/01 08:16:46;;;;;;;10.15;5.88;;;;;;;16.48;100.00;101962.53;10566377;28;20043;-74
2024/02/01 08:22:10;;;;;;;13.10;5.78;;;;;;;16.50;100.00;101958.13;10548959;28;20327;-72
2024/02/01 08:27:33;;;;;;;13.40;5.30;;;;;;;16.77;100.00;101956.63;10557061;28;20051;-72
2024/02/01 08:33:02;;;;;;;12.57;5.80;;;;;;;16.94;100.00;101955.00;10556657;28;20044;-73
2024/02/01 08:38:27;;;;;;;10.82;5.00;;;;;;;16.78;100.00;101955.75;10564407;28;20058;-74
2024/02/01 08:43:49;;;;;;;16.55;5.57;;;;;;;16.93;100.00;101947.91;10562926;28;20441;-73
2024/02/01 08:49:15;;;;;;;7.75;4.70;;;;;;;17.06;100.00;101952.47;10542440;28;20526;-73
2024/02/01 08:54:40;;;;;;;9.07;4.63;;;;;;;17.35;99.35;101948.22;10561745;28;20043;-73
2024/02/01 09:00:21;;;;;;;9.25;4.90;;;;;;;17.41;98.88;101940.25;10547983;28;20092;-72
2024/02/01 09:05:44;;;;;;;10.73;5.18;;;;;;;17.35;96.40;101937.53;10572642;28;20047;-74
2024/02/01 09:11:11;;;;;;;9.50;6.13;;;;;;;17.21;100.00;101941.88;10521350;27;20061;-73
2024/02/01 09:16:34;;;;;;;10.38;5.63;;;;;;;17.15;100.00;101928.50;10604450;27;20130;-74
2024/02/01 09:22:00;;;;;;;10.68;5.70;;;;;;;17.05;100.00;101940.00;10609340;27;20054;-73
2024/02/01 09:27:24;;;;;;;10.40;7.25;;;;;;;17.19;100.00;101935.69;10584585;27;20142;-73
2024/02/01 09:32:51;;;;;;;10.32;6.15;;;;;;;16.98;98.18;101932.84;10583354;27;20039;-73
2024/02/01 09:38:13;;;;;;;8.30;4.72;;;;;;;16.77;99.64;101921.97;10612768;27;20151;-74
2024/02/01 09:43:39;;;;;;;10.77;6.82;;;;;;;16.67;100.00;101921.88;10590471;27;20047;-73
2024/02/01 09:49:04;;;;;;;10.15;5.63;;;;;;;16.63;100.00;101922.75;10584485;27;20049;-74
2024/02/01 09:54:26;;;;;;;11.05;5.60;;;;;;;16.70;98.72;101926.34;10600963;27;20043;-73
2024/02/01 09:59:52;;;;;;;10.27;6.30;;;;;;;16.63;97.43;101917.41;10585956;27;20045;-73
2024/02/01 10:05:16;;;;;;;11.57;6.53;;;;;;;16.86;97.56;101924.72;10584819;27;20046;-74
2024/02/01 10:10:39;;;;;;;13.43;5.70;;;;;;;16.95;96.47;101922.13;10588681;28;20100;-73
2024/02/01 10:16:12;;;;;;;8.60;5.20;;;;;;;16.95;96.20;101915.00;10575623;28;20051;-74
2024/02/01 10:21:35;;;;;;;8.38;4.95;;;;;;;16.85;95.58;101918.50;10558939;28;20047;-73
2024/02/01 10:27:04;;;;;;;10.57;5.75;;;;;;;16.96;94.28;101915.91;10565450;28;20064;-74
2024/02/01 10:32:35;;;;;;;13.40;5.90;;;;;;;17.00;93.30;101910.59;10517030;28;20389;-74
2024/02/01 10:37:58;;;;;;;7.13;5.55;;;;;;;17.11;92.08;101908.03;10558783;28;20052;-74
2024/02/01 10:43:22;;;;;;;9.73;4.75;;;;;;;17.16;91.81;101900.94;10580348;28;20300;-74
2024/02/01 10:48:52;;;;;;;9.93;6.28;;;;;;;17.26;93.08;101900.13;10566373;28;20051;-74
2024/02/01 10:54:15;;;;;;;36.38;19.38;;;;;;;17.06;92.55;101893.78;10562612;28;20560;-74
2024/02/01 10:59:38;;;;;;;8.60;5.40;;;;;;;17.34;89.36;101895.72;10579187;28;20100;-74
2024/02/01 11:05:08;;;;;;;10.13;6.07;;;;;;;17.56;86.61;101888.72;10565893;28;20057;-74
2024/02/01 11:10:30;;;;;;;9.57;4.80;;;;;;;17.63;84.55;101890.59;10565048;28;20048;-74
2024/02/01 11:15:55;;;;;;;10.95;5.90;;;;;;;17.52;82.83;101885.13;10562649;28;20066;-74
2024/02/01 11:21:29;;;;;;;12.30;7.25;;;;;;;17.57;82.98;101886.94;10570517;28;20168;-74
2024/02/01 11:26:57;;;;;;;12.18;5.55;;;;;;;17.47;82.80;101886.00;10575839;28;20204;-74
2024/02/01 11:32:21;;;;;;;19.35;12.10;;;;;;;17.28;86.41;101879.66;10562798;28;20051;-74
2024/02/01 11:37:45;;;;;;;13.60;5.55;;;;;;;17.12;85.86;101869.78;10576876;28;20043;-74
2024/02/01 11:43:09;;;;;;;12.05;6.57;;;;;;;16.93;86.92;101875.88;10562617;28;20496;-74
2024/02/01 11:48:31;;;;;;;13.70;5.72;;;;;;;17.05;87.20;101879.53;10560676;28;20039;-74
2024/02/01 11:53:57;;;;;;;9.90;5.15;;;;;;;17.02;84.16;101882.16;10560640;28;20043;-74
2024/02/01 11:59:19;;;;;;;8.55;5.93;;;;;;;17.19;81.80;101879.63;10560981;28;20055;-74
2024/02/01 12:04:45;;;;;;;7.75;4.70;;;;;;;17.10;79.50;101876.88;10561302;28;20067;-74
2024/02/01 12:10:12;;;;;;;9.55;6.05;;;;;;;17.16;79.17;101884.03;10575766;28;20433;-74
2024/02/01 12:15:36;;;;;;;11.50;5.78;;;;;;;17.54;77.17;101879.81;10569381;28;20039;-74
2024/02/01 12:20:59;;;;;;;10.40;6.00;;;;;;;17.91;74.58;101880.91;10532389;28;20082;-74
2024/02/01 12:26:23;;;;;;;9.70;5.57;;;;;;;18.00;72.88;101880.91;10558439;28;20055;-74
2024/02/01 12:31:49;;;;;;;10.85;7.28;;;;;;;17.81;75.14;101879.06;10564901;28;20127;-74
2024/02/01 12:37:14;;;;;;;16.85;7.07;;;;;;;17.61;76.50;101878.09;10526943;28;20125;-74
2024/02/01 12:42:38;;;;;;;10.57;5.65;;;;;;;17.19;75.15;101876.97;10545153;28;20047;-74
2024/02/01 12:48:03;;;;;;;14.15;5.70;;;;;;;16.90;78.32;101883.84;10538083;28;20053;-74
2024/02/01 12:53:26;;;;;;;8.98;6.30;;;;;;;16.82;79.81;101885.56;10554376;28;20044;-73
2024/02/01 12:58:50;;;;;;;12.63;6.45;;;;;;;16.91;82.11;101891.88;10563543;27;20071;-74
2024/02/01 13:04:12;;;;;;;12.50;4.82;;;;;;;16.84;79.49;101891.81;10559459;28;20047;-75
2024/02/01 13:09:38;;;;;;;12.50;4.75;;;;;;;16.99;78.97;101881.25;10525106;28;20052;-73
2024/02/01 13:15:05;;;;;;;8.80;4.90;;;;;;;16.93;76.24;101876.78;10578400;27;20047;-75
2024/02/01 13:20:29;;;;;;;10.35;4.63;;;;;;;17.02;77.05;101868.81;10599480;27;20053;-74
2024/02/01 13:25:54;;;;;;;18.42;5.22;;;;;;;17.05;77.46;101878.63;10584031;27;20104;-74
2024/02/01 13:31:19;;;;;;;11.68;4.93;;;;;;;16.52;79.38;101876.41;10597041;27;20079;-74
2024/02/01 13:36:42;;;;;;;18.63;7.40;;;;;;;16.21;87.09;101888.50;10585039;27;20050;-74
2024/02/01 13:42:05;;;;;;;10.82;4.78;;;;;;;16.27;88.71;101883.28;10584655;27;20171;-73
2024/02/01 13:47:29;;;;;;;13.88;5.10;;;;;;;16.29;88.78;101880.59;10567577;27;20415;-73
2024/02/01 13:52:54;;;;;;;14.18;5.72;;;;;;;16.16;91.11;101882.25;10596016;27;20046;-73
2024/02/01 13:58:19;;;;;;;9.18;5.05;;;;;;;16.08;91.29;101873.25;10576379;27;20153;-73
2024/02/01 14:03:44;;;;;;;10.18;5.82;;;;;;;16.08;92.64;101867.06;10581501;27;20478;-74
2024/02/01 14:09:09;;;;;;;11.43;4.80;;;;;;;16.01;93.16;101870.53;10585248;28;20579;-74
2024/02/01 14:14:32;;;;;;;11.80;5.32;;;;;;;15.55;93.57;101870.00;10577282;28;20073;-74
2024/02/01 14:19:56;;;;;;;11.25;6.38;;;;;;;15.46;95.31;101884.03;10549807;28;20101;-74
2024/02/01 14:25:18;;;;;;;11.18;5.43;;;;;;;15.32;95.77;101893.56;10541899;28;20052;-73
2024/02/01 14:30:41;;;;;;;11.15;5.60;;;;;;;15.20;93.82;101889.84;10554410;28;20044;-74
2024/02/01 14:36:06;;;;;;;13.07;6.20;;;;;;;14.81;92.06;101893.69;10538205;28;20396;-74
2024/02/01 14:41:29;;;;;;;13.13;5.70;;;;;;;14.44;90.77;101897.44;10516212;28;20503;-74
2024/02/01 14:46:53;;;;;;;10.52;4.32;;;;;;;14.10;89.69;101897.66;10522163;28;20040;-73
2024/02/01 14:52:18;;;;;;;10.95;5.80;;;;;;;13.74;92.23;101896.06;10546937;28;20043;-74
2024/02/01 14:57:40;;;;;;;14.38;8.13;;;;;;;13.42;94.85;101907.72;10520928;28;20035;-74
2024/02/01 15:03:03;;;;;;;39.63;17.60;;;;;;;13.45;96.16;101914.03;10528060;28;20043;-74
2024/02/01 15:08:29;;;;;;;11.82;6.93;;;;;;;13.78;96.81;101907.66;10547801;28;20055;-74
2024/02/01 15:13:52;;;;;;;11.15;5.78;;;;;;;13.91;100.00;101910.56;10546730;28;20043;-74
2024/02/01 15:19:14;;;;;;;13.80;5.45;;;;;;;13.92;100.00;101906.16;10578542;28;20047;-73
2024/02/01 15:24:39;;;;;;;10.05;5.13;;;;;;;13.82;100.00;101906.84;10591971;27;20047;-74
2024/02/01 15:30:09;;;;;;;12.23;5.15;;;;;;;13.86;100.00;101912.22;10611472;27;20506;-74
2024/02/01 15:35:32;;;;;;;8.70;4.53;;;;;;;13.91;100.00;101907.03;10590669;27;20051;-74
2024/02/01 15:40:56;;;;;;;12.23;5.38;;;;;;;13.53;100.00;101909.75;10603224;27;20066;-74
2024/02/01 15:46:19;;;;;;;13.68;5.50;;;;;;;13.08;100.00;101921.94;10625321;27;20047;-74
2024/02/01 15:51:42;;;;;;;9.18;3.80;;;;;;;12.82;100.00;101923.03;10615817;27;20039;-74
2024/02/01 15:57:07;;;;;;;8.95;4.72;;;;;;;12.55;100.00;101924.13;10589865;27;20095;-74
2024/02/01 16:02:30;;;;;;;8.48;4.95;;;;;;;12.39;100.00;101932.53;10617491;27;20399;-74
2024/02/01 16:07:52;;;;;;;11.73;5.00;;;;;;;12.22;100.00;101928.53;10604132;27;20043;-74
2024/02/01 16:13:17;;;;;;;7.90;3.90;;;;;;;12.38;100.00;101930.75;10604622;27;20082;-74
2024/02/01 16:18:40;;;;;;;11.43;4.55;;;;;;;12.56;100.00;101946.22;10568975;27;20559;-75
2024/02/01 16:24:04;;;;;;;8.68;4.28;;;;;;;12.70;100.00;101940.44;10556735;27;20092;-75
2024/02/01 16:29:28;;;;;;;18.90;10.20;;;;;;;12.57;100.00;101946.28;10573637;27;20047;-74
2024/02/01 16:34:51;;;;;;;22.73;9.35;;;;;;;12.27;100.00;101945.44;10568154;27;20035;-74
2024/02/01 16:40:29;;;;;;;12.50;5.32;;;;;;;12.22;100.00;101953.25;10531986;27;20466;-74
2024/02/01 16:45:53;;;;;;;16.70;7.78;;;;;;;12.22;100.00;101942.66;10540528;28;20043;-75
2024/02/01 16:51:21;;;;;;;15.40;9.20;;;;;;;12.08;100.00;101937.84;10517520;27;20089;-74
2024/02/01 16:56:44;;;;;;;11.93;5.53;;;;;;;12.22;100.00;101945.31;10535890;27;20040;-75
2024/02/01 17:02:35;;;;;;;13.70;10.82;;;;;;;12.60;100.00;101932.22;10539724;27;20048;-76
2024/02/01 17:07:58;;;;;;;11.73;5.85;;;;;;;12.82;100.00;101946.91;10541577;27;20048;-76
2024/02/01 17:13:21;;;;;;;11.88;9.27;;;;;;;12.94;100.00;101939.25;10538716;27;20056;-75
2024/02/01 17:18:46;;;;;;;18.88;12.45;;;;;;;13.03;100.00;101942.13;10532210;27;20768;-74
2024/02/01 17:24:09;;;;;;;16.95;5.45;;;;;;;13.24;100.00;101931.19;10548231;27;20258;-76
2024/02/01 17:29:32;;;;;;;15.25;6.97;;;;;;;13.26;100.00;101945.38;10552891;28;20051;-74
2024/02/01 17:34:56;;;;;;;13.90;6.65;;;;;;;13.37;100.00;101936.81;10542507;28;20146;-76
2024/02/01 17:40:19;;;;;;;17.92;10.80;;;;;;;13.40;100.00;101925.34;10536230;28;20043;-76
2024/02/01 17:45:42;;;;;;;15.07;8.90;;;;;;;13.41;100.00;101925.41;10507723;28;20396;-75
2024/02/01 17:51:16;;;;;;;15.15;6.43;;;;;;;13.32;100.00;101941.13;10524500;27;20357;-76
2024/02/01 17:56:39;;;;;;;8.10;5.55;;;;;;;13.34;100.00;101925.22;10543204;27;20045;-75
2024/02/01 18:02:02;;;;;;;14.30;5.55;;;;;;;13.45;100.00;101932.59;10563996;27;20062;-74
2024/02/01 18:07:27;;;;;;;39.42;18.40;;;;;;;13.46;100.00;101930.81;10522062;28;20221;-75
2024/02/01 18:12:53;;;;;;;15.00;7.25;;;;;;;13.49;100.00;101926.47;10556062;28;20048;-75
2024/02/01 18:18:23;;;;;;;16.30;8.43;;;;;;;13.51;100.00;101929.16;10527894;28;20051;-75
2024/02/01 18:23:50;;;;;;;15.60;7.55;;;;;;;13.51;100.00;101934.47;10542374;28;20219;-74
2024/02/01 18:29:19;;;;;;;11.52;6.70;;;;;;;13.40;97.15;101931.56;10527992;28;20051;-75
2024/02/01 18:34:42;;;;;;;10.77;6.28;;;;;;;13.09;94.55;101936.97;10544766;28;20189;-75
2024/02/01 18:40:20;;;;;;;13.02;6.13;;;;;;;13.10;90.04;101937.03;10562631;28;20467;-76
2024/02/01 18:45:44;;;;;;;17.83;7.60;;;;;;;13.00;88.47;101934.09;10539094;28;20044;-77
2024/02/01 18:51:08;;;;;;;11.57;7.35;;;;;;;12.88;85.74;101928.50;10547511;28;20131;-75
2024/02/01 18:56:34;;;;;;;18.33;11.57;;;;;;;12.71;86.35;101930.72;10525560;28;20063;-75
2024/02/01 19:01:57;;;;;;;14.50;7.60;;;;;;;12.57;89.34;101927.72;10571112;27;20043;-76
2024/02/01 19:07:20;;;;;;;13.90;7.60;;;;;;;12.46;93.88;101936.25;10569009;27;20044;-77
2024/02/01 19:12:45;;;;;;;12.43;6.40;;;;;;;12.39;95.99;101943.13;10562305;27;20138;-76
2024/02/01 19:18:11;;;;;;;13.65;8.85;;;;;;;12.51;97.20;101927.56;10549672;27;20059;-78
2024/02/01 19:23:36;;;;;;;10.50;5.18;;;;;;;12.38;98.30;101918.41;10550859;27;20135;-78
2024/02/01 19:29:04;;;;;;;16.33;9.68;;;;;;;12.52;97.75;101920.53;10547933;27;20042;-77
2024/02/01 19:34:27;;;;;;;9.05;5.35;;;;;;;12.65;96.66;101909.38;10577815;28;20668;-77
2024/02/01 19:39:50;;;;;;;8.32;6.25;;;;;;;12.79;95.89;101907.97;10563652;27;20051;-76
2024/02/01 19:45:15;;;;;;;15.75;10.18;;;;;;;12.81;96.04;101910.66;10539626;28;20047;-75
2024/02/01 19:50:38;;;;;;;13.85;6.40;;;;;;;12.66;94.99;101901.47;10546181;28;20052;-76
2024/02/01 19:56:00;;;;;;;15.88;9.32;;;;;;;12.57;95.65;101909.19;10544315;28;20411;-75
2024/02/01 20:01:24;;;;;;;15.60;8.15;;;;;;;12.37;95.36;101908.66;10551620;28;20048;-75
2024/02/01 20:06:47;;;;;;;10.30;5.80;;;;;;;12.14;96.68;101906.25;10547197;27;20056;-77
2024/02/01 20:12:14;;;;;;;17.52;9.20;;;;;;;12.06;96.22;101898.09;10545954;27;20524;-76
2024/02/01 20:17:38;;;;;;;12.90;7.75;;;;;;;11.79;97.81;101899.97;10560285;27;20127;-75
2024/02/01 20:23:01;;;;;;;9.07;6.10;;;;;;;11.68;97.80;101902.28;10522384;27;20106;-74
2024/02/01 20:28:50;;;;;;;13.73;7.50;;;;;;;11.48;99.13;101906.06;10599551;27;20035;-77
2024/02/01 20:34:29;;;;;;;10.15;5.10;;;;;;;11.29;100.00;101896.66;10584179;27;20092;-77
2024/02/01 20:39:52;;;;;;;;;;;;;;;11.44;100.00;101893.59;10540801;27;20039;-76
2024/02/01 20:45:15;;;;;;;9.32;4.95;;;;;;;11.40;100.00;101889.06;10546224;27;19924;-76
2024/02/01 20:50:40;;;;;;;10.18;6.53;;;;;;;11.26;99.63;101891.28;10551439;27;20050;-76
2024/02/01 20:56:03;;;;;;;10.75;4.72;;;;;;;11.30;97.88;101901.09;10543703;28;20143;-77
2024/02/01 21:01:36;;;;;;;11.32;4.78;;;;;;;11.28;96.96;101900.19;10540262;28;20071;-77
2024/02/01 21:07:00;;;;;;;14.82;8.15;;;;;;;11.14;98.28;101878.59;10535654;28;20553;-77
2024/02/01 21:12:22;;;;;;;23.30;12.40;;;;;;;11.12;99.85;101872.34;10559882;27;20062;-75
2024/02/01 21:17:49;;;;;;;15.27;8.45;;;;;;;11.16;100.00;101871.59;10586839;27;20133;-75
2024/02/01 21:23:30;;;;;;;10.77;6.13;;;;;;;11.16;99.92;101862.75;10621773;27;20150;-75
2024/02/01 21:28:56;;;;;;;11.48;7.72;;;;;;;11.11;99.30;101862.63;10595288;27;20051;-75
2024/02/01 21:34:21;;;;;;;17.08;8.40;;;;;;;11.12;99.08;101867.06;10630552;27;20499;-76
2024/02/01 21:40:02;;;;;;;16.85;9.50;;;;;;;11.10;99.92;101857.28;10631657;27;20054;-77
2024/02/01 21:45:26;;;;;;;19.35;9.90;;;;;;;11.23;100.00;101843.59;10604190;27;20043;-77
2024/02/01 21:50:49;;;;;;;26.10;14.05;;;;;;;11.04;100.00;101846.53;10588613;27;20047;-77
2024/02/01 21:56:13;;;;;;;12.32;7.78;;;;;;;10.78;100.00;101841.34;10587717;27;20043;-76
2024/02/01 22:01:36;;;;;;;13.20;5.75;;;;;;;10.84;100.00;101851.19;10602165;27;20100;-76
2024/02/01 22:06:58;;;;;;;27.83;13.57;;;;;;;10.71;100.00;101841.06;10615458;27;20046;-76
2024/02/01 22:12:25;;;;;;;15.10;9.20;;;;;;;10.73;100.00;101842.03;10638142;27;20055;-76
2024/02/01 22:17:48;;;;;;;11.13;8.60;;;;;;;10.71;100.00;101833.16;10645019;27;20078;-76
2024/02/01 22:23:10;;;;;;;32.45;15.65;;;;;;;10.60;100.00;101837.19;10643950;27;20054;-76
2024/02/01 22:28:35;;;;;;;9.57;4.47;;;;;;;10.70;100.00;101841.91;10642079;27;20043;-76
2024/02/01 22:33:58;;;;;;;15.40;7.65;;;;;;;10.74;100.00;101847.38;10624912;27;20538;-76
2024/02/01 22:39:20;;;;;;;25.42;15.35;;;;;;;10.78;100.00;101838.69;10610223;27;20062;-77
2024/02/01 22:44:44;;;;;;;10.75;5.68;;;;;;;10.89;100.00;101843.44;10637875;27;20054;-76
2024/02/01 22:50:08;;;;;;;27.92;17.10;;;;;;;10.93;100.00;101843.56;10631056;27;20073;-76
2024/02/01 22:55:30;;;;;;;10.00;7.53;;;;;;;11.21;100.00;101844.44;10603151;27;20050;-77
2024/02/01 23:00:54;;;;;;;9.98;6.40;;;;;;;11.44;100.00;101838.06;10613220;27;20043;-76
2024/02/01 23:06:17;;;;;;;7.80;5.80;;;;;;;11.65;100.00;101838.69;10603427;27;20146;-76
2024/02/01 23:11:41;;;;;;;16.98;7.95;;;;;;;11.83;99.93;101841.88;10604117;27;20696;-76
2024/02/01 23:17:05;;;;;;;20.05;9.00;;;;;;;11.96;99.00;101825.47;10598110;27;20039;-76
2024/02/01 23:22:28;;;;;;;22.60;11.02;;;;;;;12.16;97.53;101823.38;10597206;27;20051;-76
2024/02/01 23:27:50;;;;;;;20.60;10.52;;;;;;;12.17;97.26;101821.63;10613789;27;20138;-77
2024/02/01 23:33:15;;;;;;;19.65;10.10;;;;;;;12.20;99.31;101824.34;10621965;27;20049;-76
2024/02/01 23:38:37;;;;;;;16.10;7.97;;;;;;;12.27;99.60;101826.31;10612253;27;20065;-75
2024/02/01 23:44:00;;;;;;;12.05;6.93;;;;;;;12.19;100.00;101822.56;10616594;27;20145;-77
2024/02/01 23:49:24;;;;;;;10.15;6.15;;;;;;;12.28;99.59;101821.03;10623279;27;20061;-77
2024/02/01 23:54:50;;;;;;;7.60;4.82;;;;;;;12.05;99.34;101811.59;10606486;27;20059;-77
